sensor_id;sensor_type;location;lat;lon;timestamp;P1;durP1;ratioP1;P2;durP2;ratioP2
66741;SDS011;53654;54.152;19.432;2023-10-09T00:00:14;6.80;;;5.20;;
66741;SDS011;53654;54.152;19.432;2023-10-09T00:03:27;5.40;;;4.40;;
66741;SDS011;53654;54.152;19.432;2023-10-09T00:05:56;5.70;;;4.40;;
66741;SDS011;53654;54.152;19.432;2023-10-09T00:08:25;6.00;;;4.20;;
66741;SDS011;53654;54.152;19.432;2023-10-09T00:11:00;4.80;;;3.80;;
66741;SDS011;53654;54.152;19.432;2023-10-09T00:13:43;4.80;;;4.10;;
66741;SDS011;53654;54.152;19.432;2023-10-09T00:16:25;5.50;;;4.40;;
66741;SDS011;53654;54.152;19.432;2023-10-09T00:19:05;6.40;;;4.50;;
66741;SDS011;53654;54.152;19.432;2023-10-09T00:21:54;6.80;;;4.60;;
66741;SDS011;53654;54.152;19.432;2023-10-09T00:24:23;6.30;;;4.80;;
66741;SDS011;53654;54.152;19.432;2023-10-09T00:26:52;7.50;;;6.00;;
66741;SDS011;53654;54.152;19.432;2023-10-09T00:29:29;7.80;;;6.20;;
66741;SDS011;53654;54.152;19.432;2023-10-09T00:32:02;6.80;;;6.10;;
66741;SDS011;53654;54.152;19.432;2023-10-09T00:34:49;7.20;;;5.80;;
66741;SDS011;53654;54.152;19.432;2023-10-09T00:37:20;6.50;;;5.60;;
66741;SDS011;53654;54.152;19.432;2023-10-09T00:39:53;7.30;;;5.50;;
66741;SDS011;53654;54.152;19.432;2023-10-09T00:42:24;6.50;;;5.20;;
66741;SDS011;53654;54.152;19.432;2023-10-09T00:45:01;5.10;;;4.60;;
66741;SDS011;53654;54.152;19.432;2023-10-09T00:47:33;5.60;;;4.80;;
66741;SDS011;53654;54.152;19.432;2023-10-09T00:50:03;7.20;;;5.00;;
66741;SDS011;53654;54.152;19.432;2023-10-09T00:52:44;6.20;;;5.30;;
66741;SDS011;53654;54.152;19.432;2023-10-09T00:55:19;5.50;;;4.90;;
66741;SDS011;53654;54.152;19.432;2023-10-09T00:58:06;6.20;;;5.20;;
66741;SDS011;53654;54.152;19.432;2023-10-09T01:00:42;6.60;;;5.60;;
66741;SDS011;53654;54.152;19.432;2023-10-09T01:03:12;6.90;;;5.60;;
66741;SDS011;53654;54.152;19.432;2023-10-09T01:05:42;6.90;;;5.90;;
66741;SDS011;53654;54.152;19.432;2023-10-09T01:08:35;8.30;;;6.70;;
66741;SDS011;53654;54.152;19.432;2023-10-09T01:13:38;7.60;;;6.60;;
66741;SDS011;53654;54.152;19.432;2023-10-09T01:16:20;8.00;;;6.90;;
66741;SDS011;53654;54.152;19.432;2023-10-09T01:18:51;7.70;;;6.50;;
66741;SDS011;53654;54.152;19.432;2023-10-09T01:21:25;8.70;;;6.80;;
66741;SDS011;53654;54.152;19.432;2023-10-09T01:23:55;9.40;;;6.00;;
66741;SDS011;53654;54.152;19.432;2023-10-09T01:26:36;7.60;;;5.90;;
66741;SDS011;53654;54.152;19.432;2023-10-09T01:29:22;7.10;;;5.70;;
66741;SDS011;53654;54.152;19.432;2023-10-09T01:31:57;6.70;;;5.70;;
66741;SDS011;53654;54.152;19.432;2023-10-09T01:34:32;8.30;;;5.50;;
66741;SDS011;53654;54.152;19.432;2023-10-09T01:37:12;8.30;;;5.30;;
66741;SDS011;53654;54.152;19.432;2023-10-09T01:39:52;7.10;;;5.60;;
66741;SDS011;53654;54.152;19.432;2023-10-09T01:42:21;7.20;;;5.50;;
66741;SDS011;53654;54.152;19.432;2023-10-09T01:44:58;5.60;;;4.90;;
66741;SDS011;53654;54.152;19.432;2023-10-09T01:47:38;6.30;;;4.70;;
66741;SDS011;53654;54.152;19.432;2023-10-09T01:50:08;5.90;;;4.80;;
66741;SDS011;53654;54.152;19.432;2023-10-09T01:52:47;5.40;;;4.70;;
66741;SDS011;53654;54.152;19.432;2023-10-09T01:55:17;6.10;;;4.30;;
66741;SDS011;53654;54.152;19.432;2023-10-09T01:58:07;7.10;;;4.30;;
66741;SDS011;53654;54.152;19.432;2023-10-09T02:00:52;4.70;;;3.90;;
66741;SDS011;53654;54.152;19.432;2023-10-09T02:03:24;4.80;;;4.30;;
66741;SDS011;53654;54.152;19.432;2023-10-09T02:05:53;5.30;;;4.00;;
66741;SDS011;53654;54.152;19.432;2023-10-09T02:08:28;4.50;;;4.00;;
66741;SDS011;53654;54.152;19.432;2023-10-09T02:10:57;5.40;;;4.00;;
66741;SDS011;53654;54.152;19.432;2023-10-09T02:13:26;4.60;;;4.10;;
66741;SDS011;53654;54.152;19.432;2023-10-09T02:16:03;5.40;;;3.90;;
66741;SDS011;53654;54.152;19.432;2023-10-09T02:18:40;5.20;;;4.10;;
66741;SDS011;53654;54.152;19.432;2023-10-09T02:21:29;4.70;;;3.60;;
66741;SDS011;53654;54.152;19.432;2023-10-09T02:24:09;4.10;;;3.70;;
66741;SDS011;53654;54.152;19.432;2023-10-09T02:26:38;6.80;;;4.50;;
66741;SDS011;53654;54.152;19.432;2023-10-09T02:29:06;5.30;;;4.50;;
66741;SDS011;53654;54.152;19.432;2023-10-09T02:31:41;5.70;;;4.40;;
66741;SDS011;53654;54.152;19.432;2023-10-09T02:34:12;6.20;;;3.80;;
66741;SDS011;53654;54.152;19.432;2023-10-09T02:36:43;5.10;;;4.40;;
66741;SDS011;53654;54.152;19.432;2023-10-09T02:39:16;4.40;;;3.60;;
66741;SDS011;53654;54.152;19.432;2023-10-09T02:41:52;5.50;;;4.50;;
66741;SDS011;53654;54.152;19.432;2023-10-09T02:44:26;4.80;;;4.30;;
66741;SDS011;53654;54.152;19.432;2023-10-09T02:46:57;5.80;;;4.40;;
66741;SDS011;53654;54.152;19.432;2023-10-09T02:49:26;4.80;;;4.20;;
66741;SDS011;53654;54.152;19.432;2023-10-09T02:51:55;4.80;;;4.20;;
66741;SDS011;53654;54.152;19.432;2023-10-09T02:54:23;5.00;;;4.20;;
66741;SDS011;53654;54.152;19.432;2023-10-09T02:56:52;5.70;;;3.90;;
66741;SDS011;53654;54.152;19.432;2023-10-09T02:59:34;4.70;;;3.60;;
66741;SDS011;53654;54.152;19.432;2023-10-09T03:02:06;3.70;;;3.30;;
66741;SDS011;53654;54.152;19.432;2023-10-09T03:04:35;4.10;;;3.70;;
66741;SDS011;53654;54.152;19.432;2023-10-09T03:07:05;4.00;;;3.50;;
66741;SDS011;53654;54.152;19.432;2023-10-09T03:09:35;4.30;;;3.70;;
66741;SDS011;53654;54.152;19.432;2023-10-09T03:12:03;4.50;;;3.50;;
66741;SDS011;53654;54.152;19.432;2023-10-09T03:14:35;5.40;;;3.80;;
66741;SDS011;53654;54.152;19.432;2023-10-09T03:17:09;4.50;;;3.90;;
66741;SDS011;53654;54.152;19.432;2023-10-09T03:19:41;5.40;;;3.90;;
66741;SDS011;53654;54.152;19.432;2023-10-09T03:22:11;4.90;;;4.00;;
66741;SDS011;53654;54.152;19.432;2023-10-09T03:24:39;5.10;;;3.90;;
66741;SDS011;53654;54.152;19.432;2023-10-09T03:27:19;4.80;;;3.90;;
66741;SDS011;53654;54.152;19.432;2023-10-09T03:29:47;4.80;;;3.70;;
66741;SDS011;53654;54.152;19.432;2023-10-09T03:32:22;5.30;;;4.00;;
66741;SDS011;53654;54.152;19.432;2023-10-09T03:34:50;5.40;;;3.90;;
66741;SDS011;53654;54.152;19.432;2023-10-09T03:37:19;4.60;;;3.50;;
66741;SDS011;53654;54.152;19.432;2023-10-09T03:40:02;5.40;;;3.70;;
66741;SDS011;53654;54.152;19.432;2023-10-09T03:42:32;3.80;;;3.30;;
66741;SDS011;53654;54.152;19.432;2023-10-09T03:45:02;4.30;;;3.40;;
66741;SDS011;53654;54.152;19.432;2023-10-09T03:47:41;4.50;;;3.50;;
66741;SDS011;53654;54.152;19.432;2023-10-09T03:50:16;4.20;;;3.30;;
66741;SDS011;53654;54.152;19.432;2023-10-09T03:53:04;4.00;;;3.60;;
66741;SDS011;53654;54.152;19.432;2023-10-09T03:55:36;6.10;;;3.50;;
66741;SDS011;53654;54.152;19.432;2023-10-09T03:58:07;5.80;;;3.40;;
66741;SDS011;53654;54.152;19.432;2023-10-09T04:00:40;4.00;;;3.60;;
66741;SDS011;53654;54.152;19.432;2023-10-09T04:03:15;4.80;;;4.10;;
66741;SDS011;53654;54.152;19.432;2023-10-09T04:05:45;4.20;;;3.70;;
66741;SDS011;53654;54.152;19.432;2023-10-09T04:08:13;5.10;;;4.00;;
66741;SDS011;53654;54.152;19.432;2023-10-09T04:10:57;4.60;;;3.60;;
66741;SDS011;53654;54.152;19.432;2023-10-09T04:13:32;4.70;;;3.60;;
66741;SDS011;53654;54.152;19.432;2023-10-09T04:16:02;4.40;;;3.60;;
66741;SDS011;53654;54.152;19.432;2023-10-09T04:18:39;3.80;;;3.30;;
66741;SDS011;53654;54.152;19.432;2023-10-09T04:21:08;4.50;;;3.60;;
66741;SDS011;53654;54.152;19.432;2023-10-09T04:23:58;4.60;;;4.00;;
66741;SDS011;53654;54.152;19.432;2023-10-09T04:26:42;5.20;;;4.30;;
66741;SDS011;53654;54.152;19.432;2023-10-09T04:29:14;6.20;;;5.60;;
66741;SDS011;53654;54.152;19.432;2023-10-09T04:31:55;7.00;;;6.10;;
66741;SDS011;53654;54.152;19.432;2023-10-09T04:34:24;10.00;;;9.00;;
66741;SDS011;53654;54.152;19.432;2023-10-09T04:36:56;9.40;;;8.40;;
66741;SDS011;53654;54.152;19.432;2023-10-09T04:39:29;10.40;;;7.90;;
66741;SDS011;53654;54.152;19.432;2023-10-09T04:41:58;7.40;;;6.40;;
66741;SDS011;53654;54.152;19.432;2023-10-09T04:44:45;8.90;;;6.60;;
66741;SDS011;53654;54.152;19.432;2023-10-09T04:47:33;9.90;;;8.90;;
66741;SDS011;53654;54.152;19.432;2023-10-09T04:50:06;19.90;;;15.70;;
66741;SDS011;53654;54.152;19.432;2023-10-09T04:53:02;21.60;;;15.30;;
66741;SDS011;53654;54.152;19.432;2023-10-09T04:55:45;17.70;;;14.10;;
66741;SDS011;53654;54.152;19.432;2023-10-09T04:58:23;14.00;;;11.30;;
66741;SDS011;53654;54.152;19.432;2023-10-09T05:00:53;10.60;;;7.00;;
66741;SDS011;53654;54.152;19.432;2023-10-09T05:03:25;32.10;;;22.90;;
66741;SDS011;53654;54.152;19.432;2023-10-09T05:05:57;22.40;;;17.50;;
66741;SDS011;53654;54.152;19.432;2023-10-09T05:08:48;19.10;;;15.10;;
66741;SDS011;53654;54.152;19.432;2023-10-09T05:11:17;20.80;;;16.80;;
66741;SDS011;53654;54.152;19.432;2023-10-09T05:14:03;17.30;;;13.60;;
66741;SDS011;53654;54.152;19.432;2023-10-09T05:16:41;12.80;;;10.80;;
66741;SDS011;53654;54.152;19.432;2023-10-09T05:19:29;11.00;;;9.60;;
66741;SDS011;53654;54.152;19.432;2023-10-09T05:21:57;11.20;;;10.00;;
66741;SDS011;53654;54.152;19.432;2023-10-09T05:24:26;9.90;;;8.80;;
66741;SDS011;53654;54.152;19.432;2023-10-09T05:26:56;10.30;;;8.70;;
66741;SDS011;53654;54.152;19.432;2023-10-09T05:29:44;9.60;;;8.00;;
66741;SDS011;53654;54.152;19.432;2023-10-09T05:32:36;8.60;;;7.70;;
66741;SDS011;53654;54.152;19.432;2023-10-09T05:35:16;8.20;;;6.90;;
66741;SDS011;53654;54.152;19.432;2023-10-09T05:37:44;10.20;;;7.10;;
66741;SDS011;53654;54.152;19.432;2023-10-09T05:40:13;10.70;;;9.60;;
66741;SDS011;53654;54.152;19.432;2023-10-09T05:42:51;12.80;;;10.20;;
66741;SDS011;53654;54.152;19.432;2023-10-09T05:45:30;13.40;;;11.30;;
66741;SDS011;53654;54.152;19.432;2023-10-09T05:48:18;10.10;;;7.90;;
66741;SDS011;53654;54.152;19.432;2023-10-09T05:50:46;10.50;;;8.20;;
66741;SDS011;53654;54.152;19.432;2023-10-09T05:53:33;9.40;;;8.30;;
66741;SDS011;53654;54.152;19.432;2023-10-09T05:56:22;9.80;;;8.80;;
66741;SDS011;53654;54.152;19.432;2023-10-09T05:59:08;8.60;;;7.50;;
66741;SDS011;53654;54.152;19.432;2023-10-09T06:01:39;8.50;;;7.60;;
66741;SDS011;53654;54.152;19.432;2023-10-09T06:04:26;7.40;;;6.70;;
66741;SDS011;53654;54.152;19.432;2023-10-09T06:07:13;8.60;;;7.30;;
66741;SDS011;53654;54.152;19.432;2023-10-09T06:09:42;9.40;;;7.30;;
66741;SDS011;53654;54.152;19.432;2023-10-09T06:12:25;8.10;;;6.90;;
66741;SDS011;53654;54.152;19.432;2023-10-09T06:15:21;9.10;;;6.70;;
66741;SDS011;53654;54.152;19.432;2023-10-09T06:18:18;8.70;;;6.30;;
66741;SDS011;53654;54.152;19.432;2023-10-09T06:21:01;7.80;;;6.60;;
66741;SDS011;53654;54.152;19.432;2023-10-09T06:23:38;9.60;;;6.60;;
66741;SDS011;53654;54.152;19.432;2023-10-09T06:26:37;9.00;;;6.80;;
66741;SDS011;53654;54.152;19.432;2023-10-09T06:29:05;8.80;;;7.30;;
66741;SDS011;53654;54.152;19.432;2023-10-09T06:31:42;9.90;;;7.80;;
66741;SDS011;53654;54.152;19.432;2023-10-09T06:34:27;12.80;;;8.70;;
66741;SDS011;53654;54.152;19.432;2023-10-09T06:37:03;9.00;;;7.80;;
66741;SDS011;53654;54.152;19.432;2023-10-09T06:39:54;9.60;;;7.10;;
66741;SDS011;53654;54.152;19.432;2023-10-09T06:42:23;13.10;;;9.70;;
66741;SDS011;53654;54.152;19.432;2023-10-09T06:45:02;13.90;;;9.10;;
66741;SDS011;53654;54.152;19.432;2023-10-09T06:47:52;10.50;;;6.70;;
66741;SDS011;53654;54.152;19.432;2023-10-09T06:50:37;7.30;;;5.50;;
66741;SDS011;53654;54.152;19.432;2023-10-09T06:53:25;9.60;;;6.00;;
66741;SDS011;53654;54.152;19.432;2023-10-09T06:56:14;6.80;;;5.40;;
66741;SDS011;53654;54.152;19.432;2023-10-09T06:58:57;6.60;;;5.70;;
66741;SDS011;53654;54.152;19.432;2023-10-09T07:01:26;6.60;;;5.50;;
66741;SDS011;53654;54.152;19.432;2023-10-09T07:03:58;5.30;;;4.80;;
66741;SDS011;53654;54.152;19.432;2023-10-09T07:06:50;5.40;;;4.90;;
66741;SDS011;53654;54.152;19.432;2023-10-09T07:09:24;5.60;;;5.00;;
66741;SDS011;53654;54.152;19.432;2023-10-09T07:12:10;5.90;;;4.50;;
66741;SDS011;53654;54.152;19.432;2023-10-09T07:14:48;6.30;;;4.80;;
66741;SDS011;53654;54.152;19.432;2023-10-09T07:17:19;5.90;;;4.90;;
66741;SDS011;53654;54.152;19.432;2023-10-09T07:19:51;5.90;;;4.90;;
66741;SDS011;53654;54.152;19.432;2023-10-09T07:22:21;6.60;;;5.30;;
66741;SDS011;53654;54.152;19.432;2023-10-09T07:24:53;7.90;;;5.00;;
66741;SDS011;53654;54.152;19.432;2023-10-09T07:27:26;7.10;;;5.40;;
66741;SDS011;53654;54.152;19.432;2023-10-09T07:33:03;7.70;;;5.00;;
66741;SDS011;53654;54.152;19.432;2023-10-09T07:35:43;4.70;;;3.90;;
66741;SDS011;53654;54.152;19.432;2023-10-09T07:40:47;4.00;;;3.60;;
66741;SDS011;53654;54.152;19.432;2023-10-09T07:43:24;6.00;;;4.00;;
66741;SDS011;53654;54.152;19.432;2023-10-09T07:46:08;4.10;;;3.40;;
66741;SDS011;53654;54.152;19.432;2023-10-09T07:48:56;4.10;;;3.40;;
66741;SDS011;53654;54.152;19.432;2023-10-09T07:51:25;3.50;;;3.10;;
66741;SDS011;53654;54.152;19.432;2023-10-09T07:54:00;4.30;;;3.50;;
66741;SDS011;53654;54.152;19.432;2023-10-09T07:56:38;4.70;;;3.40;;
66741;SDS011;53654;54.152;19.432;2023-10-09T07:59:14;4.40;;;3.40;;
66741;SDS011;53654;54.152;19.432;2023-10-09T08:01:49;5.50;;;3.30;;
66741;SDS011;53654;54.152;19.432;2023-10-09T08:04:22;4.00;;;3.40;;
66741;SDS011;53654;54.152;19.432;2023-10-09T08:07:07;4.00;;;3.40;;
66741;SDS011;53654;54.152;19.432;2023-10-09T08:09:56;4.00;;;3.60;;
66741;SDS011;53654;54.152;19.432;2023-10-09T08:12:43;3.70;;;3.40;;
66741;SDS011;53654;54.152;19.432;2023-10-09T08:15:17;4.30;;;3.40;;
66741;SDS011;53654;54.152;19.432;2023-10-09T08:17:47;5.00;;;3.50;;
66741;SDS011;53654;54.152;19.432;2023-10-09T08:20:25;4.10;;;3.60;;
66741;SDS011;53654;54.152;19.432;2023-10-09T08:22:54;4.40;;;3.70;;
66741;SDS011;53654;54.152;19.432;2023-10-09T08:25:26;5.20;;;4.00;;
66741;SDS011;53654;54.152;19.432;2023-10-09T08:27:56;5.10;;;3.70;;
66741;SDS011;53654;54.152;19.432;2023-10-09T08:31:00;5.00;;;4.20;;
66741;SDS011;53654;54.152;19.432;2023-10-09T08:33:31;4.90;;;4.40;;
66741;SDS011;53654;54.152;19.432;2023-10-09T08:36:22;4.70;;;3.90;;
66741;SDS011;53654;54.152;19.432;2023-10-09T08:39:00;4.00;;;3.50;;
66741;SDS011;53654;54.152;19.432;2023-10-09T08:41:42;6.20;;;3.80;;
66741;SDS011;53654;54.152;19.432;2023-10-09T08:44:11;4.20;;;3.50;;
66741;SDS011;53654;54.152;19.432;2023-10-09T08:46:42;4.00;;;3.60;;
66741;SDS011;53654;54.152;19.432;2023-10-09T08:49:10;5.90;;;3.60;;
66741;SDS011;53654;54.152;19.432;2023-10-09T08:51:39;3.70;;;3.40;;
66741;SDS011;53654;54.152;19.432;2023-10-09T08:54:10;4.10;;;3.70;;
66741;SDS011;53654;54.152;19.432;2023-10-09T08:56:40;4.40;;;3.60;;
66741;SDS011;53654;54.152;19.432;2023-10-09T08:59:29;4.80;;;3.20;;
66741;SDS011;53654;54.152;19.432;2023-10-09T09:01:58;4.90;;;2.90;;
66741;SDS011;53654;54.152;19.432;2023-10-09T09:07:23;3.50;;;3.00;;
66741;SDS011;53654;54.152;19.432;2023-10-09T09:09:55;4.70;;;2.80;;
66741;SDS011;53654;54.152;19.432;2023-10-09T09:12:46;3.20;;;2.80;;
66741;SDS011;53654;54.152;19.432;2023-10-09T09:15:28;3.70;;;3.10;;
66741;SDS011;53654;54.152;19.432;2023-10-09T09:18:04;3.60;;;2.90;;
66741;SDS011;53654;54.152;19.432;2023-10-09T09:20:37;5.80;;;2.90;;
66741;SDS011;53654;54.152;19.432;2023-10-09T09:23:11;3.60;;;2.80;;
66741;SDS011;53654;54.152;19.432;2023-10-09T09:25:43;4.90;;;2.90;;
66741;SDS011;53654;54.152;19.432;2023-10-09T09:28:13;3.90;;;3.10;;
66741;SDS011;53654;54.152;19.432;2023-10-09T09:30:47;3.10;;;2.80;;
66741;SDS011;53654;54.152;19.432;2023-10-09T09:33:26;4.20;;;2.70;;
66741;SDS011;53654;54.152;19.432;2023-10-09T09:36:04;3.10;;;2.20;;
66741;SDS011;53654;54.152;19.432;2023-10-09T09:38:34;2.60;;;2.40;;
66741;SDS011;53654;54.152;19.432;2023-10-09T09:41:19;3.80;;;2.60;;
66741;SDS011;53654;54.152;19.432;2023-10-09T09:43:57;4.30;;;2.90;;
66741;SDS011;53654;54.152;19.432;2023-10-09T09:46:32;3.80;;;2.70;;
66741;SDS011;53654;54.152;19.432;2023-10-09T09:49:03;3.00;;;2.50;;
66741;SDS011;53654;54.152;19.432;2023-10-09T09:51:45;4.80;;;2.70;;
66741;SDS011;53654;54.152;19.432;2023-10-09T09:54:15;3.70;;;2.80;;
66741;SDS011;53654;54.152;19.432;2023-10-09T09:56:44;3.80;;;2.60;;
66741;SDS011;53654;54.152;19.432;2023-10-09T09:59:19;3.60;;;2.50;;
66741;SDS011;53654;54.152;19.432;2023-10-09T10:01:55;3.70;;;2.30;;
66741;SDS011;53654;54.152;19.432;2023-10-09T10:04:26;3.20;;;2.60;;
66741;SDS011;53654;54.152;19.432;2023-10-09T10:06:58;2.70;;;2.30;;
66741;SDS011;53654;54.152;19.432;2023-10-09T10:09:39;2.10;;;1.80;;
66741;SDS011;53654;54.152;19.432;2023-10-09T10:12:08;3.00;;;2.50;;
66741;SDS011;53654;54.152;19.432;2023-10-09T10:14:58;3.00;;;2.30;;
66741;SDS011;53654;54.152;19.432;2023-10-09T10:17:27;4.30;;;2.50;;
66741;SDS011;53654;54.152;19.432;2023-10-09T10:22:44;5.80;;;2.60;;
66741;SDS011;53654;54.152;19.432;2023-10-09T10:28:22;3.80;;;1.80;;
66741;SDS011;53654;54.152;19.432;2023-10-09T10:30:57;2.20;;;2.00;;
66741;SDS011;53654;54.152;19.432;2023-10-09T10:34:02;2.90;;;2.20;;
66741;SDS011;53654;54.152;19.432;2023-10-09T10:36:23;4.90;;;2.30;;
66741;SDS011;53654;54.152;19.432;2023-10-09T10:41:40;3.30;;;2.00;;
66741;SDS011;53654;54.152;19.432;2023-10-09T10:44:28;4.10;;;2.30;;
66741;SDS011;53654;54.152;19.432;2023-10-09T10:47:10;2.50;;;1.70;;
66741;SDS011;53654;54.152;19.432;2023-10-09T10:49:58;1.70;;;1.60;;
66741;SDS011;53654;54.152;19.432;2023-10-09T10:52:39;3.00;;;1.50;;
66741;SDS011;53654;54.152;19.432;2023-10-09T10:55:11;1.80;;;1.40;;
66741;SDS011;53654;54.152;19.432;2023-10-09T10:58:16;1.70;;;1.60;;
66741;SDS011;53654;54.152;19.432;2023-10-09T11:00:52;1.70;;;1.50;;
66741;SDS011;53654;54.152;19.432;2023-10-09T11:03:25;3.30;;;1.70;;
66741;SDS011;53654;54.152;19.432;2023-10-09T11:06:12;1.90;;;1.50;;
66741;SDS011;53654;54.152;19.432;2023-10-09T11:08:47;1.90;;;1.60;;
66741;SDS011;53654;54.152;19.432;2023-10-09T11:11:36;2.20;;;1.50;;
66741;SDS011;53654;54.152;19.432;2023-10-09T11:14:14;1.60;;;1.50;;
66741;SDS011;53654;54.152;19.432;2023-10-09T11:16:43;1.80;;;1.30;;
66741;SDS011;53654;54.152;19.432;2023-10-09T11:19:21;1.30;;;1.20;;
66741;SDS011;53654;54.152;19.432;2023-10-09T11:21:56;1.40;;;1.30;;
66741;SDS011;53654;54.152;19.432;2023-10-09T11:24:27;1.60;;;1.40;;
66741;SDS011;53654;54.152;19.432;2023-10-09T11:27:02;2.00;;;1.10;;
66741;SDS011;53654;54.152;19.432;2023-10-09T11:29:36;1.40;;;1.10;;
66741;SDS011;53654;54.152;19.432;2023-10-09T11:32:19;1.40;;;1.20;;
66741;SDS011;53654;54.152;19.432;2023-10-09T11:35:09;1.60;;;1.00;;
66741;SDS011;53654;54.152;19.432;2023-10-09T11:37:39;1.50;;;1.30;;
66741;SDS011;53654;54.152;19.432;2023-10-09T11:40:29;1.80;;;1.20;;
66741;SDS011;53654;54.152;19.432;2023-10-09T11:43:19;2.20;;;1.50;;
66741;SDS011;53654;54.152;19.432;2023-10-09T11:46:14;2.00;;;1.00;;
66741;SDS011;53654;54.152;19.432;2023-10-09T11:49:03;2.70;;;1.40;;
66741;SDS011;53654;54.152;19.432;2023-10-09T11:51:54;1.40;;;1.10;;
66741;SDS011;53654;54.152;19.432;2023-10-09T11:54:38;2.00;;;1.50;;
66741;SDS011;53654;54.152;19.432;2023-10-09T11:57:06;2.30;;;2.10;;
66741;SDS011;53654;54.152;19.432;2023-10-09T11:59:34;2.10;;;1.70;;
66741;SDS011;53654;54.152;19.432;2023-10-09T12:02:07;1.90;;;1.40;;
66741;SDS011;53654;54.152;19.432;2023-10-09T12:04:40;1.70;;;1.10;;
66741;SDS011;53654;54.152;19.432;2023-10-09T12:07:13;1.60;;;1.00;;
66741;SDS011;53654;54.152;19.432;2023-10-09T12:09:42;1.50;;;1.10;;
66741;SDS011;53654;54.152;19.432;2023-10-09T12:12:10;1.90;;;1.00;;
66741;SDS011;53654;54.152;19.432;2023-10-09T12:14:38;1.40;;;1.10;;
66741;SDS011;53654;54.152;19.432;2023-10-09T12:17:07;1.70;;;1.20;;
66741;SDS011;53654;54.152;19.432;2023-10-09T12:19:37;1.30;;;1.10;;
66741;SDS011;53654;54.152;19.432;2023-10-09T12:22:07;1.60;;;1.30;;
66741;SDS011;53654;54.152;19.432;2023-10-09T12:24:44;2.00;;;1.20;;
66741;SDS011;53654;54.152;19.432;2023-10-09T12:27:13;1.30;;;1.10;;
66741;SDS011;53654;54.152;19.432;2023-10-09T12:29:41;1.90;;;1.30;;
66741;SDS011;53654;54.152;19.432;2023-10-09T12:32:17;1.40;;;1.20;;
66741;SDS011;53654;54.152;19.432;2023-10-09T12:34:48;2.20;;;1.40;;
66741;SDS011;53654;54.152;19.432;2023-10-09T12:37:19;1.30;;;1.20;;
66741;SDS011;53654;54.152;19.432;2023-10-09T12:39:49;1.40;;;1.20;;
66741;SDS011;53654;54.152;19.432;2023-10-09T12:42:17;1.80;;;1.40;;
66741;SDS011;53654;54.152;19.432;2023-10-09T12:44:46;1.50;;;1.20;;
66741;SDS011;53654;54.152;19.432;2023-10-09T12:47:14;1.20;;;1.10;;
66741;SDS011;53654;54.152;19.432;2023-10-09T12:49:45;1.60;;;1.40;;
66741;SDS011;53654;54.152;19.432;2023-10-09T12:52:13;1.20;;;1.10;;
66741;SDS011;53654;54.152;19.432;2023-10-09T12:54:44;1.60;;;1.20;;
66741;SDS011;53654;54.152;19.432;2023-10-09T12:57:15;1.20;;;1.10;;
66741;SDS011;53654;54.152;19.432;2023-10-09T12:59:44;1.40;;;1.20;;
66741;SDS011;53654;54.152;19.432;2023-10-09T13:02:16;2.30;;;1.10;;
66741;SDS011;53654;54.152;19.432;2023-10-09T13:04:57;1.60;;;1.20;;
66741;SDS011;53654;54.152;19.432;2023-10-09T13:07:27;1.60;;;1.10;;
66741;SDS011;53654;54.152;19.432;2023-10-09T13:09:55;2.30;;;1.20;;
66741;SDS011;53654;54.152;19.432;2023-10-09T13:12:41;1.60;;;1.20;;
66741;SDS011;53654;54.152;19.432;2023-10-09T13:15:10;2.80;;;1.10;;
66741;SDS011;53654;54.152;19.432;2023-10-09T13:17:39;1.70;;;1.30;;
66741;SDS011;53654;54.152;19.432;2023-10-09T13:20:07;2.90;;;1.30;;
66741;SDS011;53654;54.152;19.432;2023-10-09T13:22:43;2.20;;;1.80;;
66741;SDS011;53654;54.152;19.432;2023-10-09T13:25:14;2.30;;;1.50;;
66741;SDS011;53654;54.152;19.432;2023-10-09T13:28:02;2.40;;;1.60;;
66741;SDS011;53654;54.152;19.432;2023-10-09T13:30:32;1.50;;;1.40;;
66741;SDS011;53654;54.152;19.432;2023-10-09T13:33:08;1.70;;;1.60;;
66741;SDS011;53654;54.152;19.432;2023-10-09T13:35:42;2.60;;;1.30;;
66741;SDS011;53654;54.152;19.432;2023-10-09T13:38:18;3.20;;;1.10;;
66741;SDS011;53654;54.152;19.432;2023-10-09T13:40:46;2.00;;;1.40;;
66741;SDS011;53654;54.152;19.432;2023-10-09T13:43:16;2.30;;;1.50;;
66741;SDS011;53654;54.152;19.432;2023-10-09T13:45:45;1.80;;;1.20;;
66741;SDS011;53654;54.152;19.432;2023-10-09T13:48:18;1.70;;;1.30;;
66741;SDS011;53654;54.152;19.432;2023-10-09T13:50:50;1.90;;;1.20;;
66741;SDS011;53654;54.152;19.432;2023-10-09T13:53:25;1.50;;;1.10;;
66741;SDS011;53654;54.152;19.432;2023-10-09T13:55:55;1.50;;;1.30;;
66741;SDS011;53654;54.152;19.432;2023-10-09T13:58:23;0.90;;;0.90;;
66741;SDS011;53654;54.152;19.432;2023-10-09T14:00:51;1.90;;;1.70;;
66741;SDS011;53654;54.152;19.432;2023-10-09T14:03:21;2.60;;;1.40;;
66741;SDS011;53654;54.152;19.432;2023-10-09T14:05:52;1.90;;;1.40;;
66741;SDS011;53654;54.152;19.432;2023-10-09T14:08:25;2.30;;;1.30;;
66741;SDS011;53654;54.152;19.432;2023-10-09T14:10:57;1.50;;;1.20;;
66741;SDS011;53654;54.152;19.432;2023-10-09T14:13:25;2.30;;;1.70;;
66741;SDS011;53654;54.152;19.432;2023-10-09T14:15:57;2.30;;;1.70;;
66741;SDS011;53654;54.152;19.432;2023-10-09T14:18:28;1.50;;;1.40;;
66741;SDS011;53654;54.152;19.432;2023-10-09T14:21:01;2.20;;;1.80;;
66741;SDS011;53654;54.152;19.432;2023-10-09T14:23:33;2.20;;;2.00;;
66741;SDS011;53654;54.152;19.432;2023-10-09T14:26:03;5.10;;;4.00;;
66741;SDS011;53654;54.152;19.432;2023-10-09T14:28:34;4.90;;;4.30;;
66741;SDS011;53654;54.152;19.432;2023-10-09T14:31:02;3.60;;;3.10;;
66741;SDS011;53654;54.152;19.432;2023-10-09T14:33:32;3.90;;;2.90;;
66741;SDS011;53654;54.152;19.432;2023-10-09T14:36:04;2.90;;;2.30;;
66741;SDS011;53654;54.152;19.432;2023-10-09T14:38:33;3.10;;;2.00;;
66741;SDS011;53654;54.152;19.432;2023-10-09T14:41:06;2.40;;;2.00;;
66741;SDS011;53654;54.152;19.432;2023-10-09T14:43:39;3.70;;;2.30;;
66741;SDS011;53654;54.152;19.432;2023-10-09T14:46:12;3.70;;;2.10;;
66741;SDS011;53654;54.152;19.432;2023-10-09T14:48:42;4.50;;;2.40;;
66741;SDS011;53654;54.152;19.432;2023-10-09T14:51:14;2.70;;;2.20;;
66741;SDS011;53654;54.152;19.432;2023-10-09T14:53:43;3.30;;;2.30;;
66741;SDS011;53654;54.152;19.432;2023-10-09T14:56:12;3.30;;;2.50;;
66741;SDS011;53654;54.152;19.432;2023-10-09T14:58:43;2.90;;;2.50;;
66741;SDS011;53654;54.152;19.432;2023-10-09T15:01:14;3.80;;;2.60;;
66741;SDS011;53654;54.152;19.432;2023-10-09T15:03:47;3.20;;;2.60;;
66741;SDS011;53654;54.152;19.432;2023-10-09T15:06:17;3.10;;;2.60;;
66741;SDS011;53654;54.152;19.432;2023-10-09T15:08:46;3.90;;;2.90;;
66741;SDS011;53654;54.152;19.432;2023-10-09T15:11:14;3.20;;;2.30;;
66741;SDS011;53654;54.152;19.432;2023-10-09T15:13:42;2.90;;;2.10;;
66741;SDS011;53654;54.152;19.432;2023-10-09T15:16:10;2.20;;;1.80;;
66741;SDS011;53654;54.152;19.432;2023-10-09T15:18:39;2.30;;;1.70;;
66741;SDS011;53654;54.152;19.432;2023-10-09T15:21:07;2.60;;;1.70;;
66741;SDS011;53654;54.152;19.432;2023-10-09T15:23:36;2.00;;;1.70;;
66741;SDS011;53654;54.152;19.432;2023-10-09T15:26:04;1.70;;;1.60;;
66741;SDS011;53654;54.152;19.432;2023-10-09T15:28:35;3.00;;;1.80;;
66741;SDS011;53654;54.152;19.432;2023-10-09T15:31:07;3.60;;;2.10;;
66741;SDS011;53654;54.152;19.432;2023-10-09T15:33:40;3.90;;;2.30;;
66741;SDS011;53654;54.152;19.432;2023-10-09T15:36:10;4.00;;;2.90;;
66741;SDS011;53654;54.152;19.432;2023-10-09T15:38:41;5.00;;;3.40;;
66741;SDS011;53654;54.152;19.432;2023-10-09T15:41:09;5.00;;;4.50;;